메인 페이지
METAR-TAF:

METAR-TAF

공항 :

엘살바도르 국제공항

엘살바도르, 엘살바도르

위도: 13-26N, 경도: 089-03W, 고도: 25m

현재 날씨관측

예보는 7분 전, 17:50시(UTC)에 발표되었습니다.
여러 방향의 바람 4kt
온도 33°C
습도 63%
기압 1010 hPa
시정 10km 이상
고도 2300ft 상공 구름 조금

METAR: MSLP 251750Z VRB04KT 9999 FEW023 33/25 Q1010 A2983 NOSIG

시각: 11:57 (17:57 UTC)

예보

예보는 2 시간 32분 전, 15:25시(UTC)에 발표되었습니다.
예보 대상 시간: 25일 18시부터 26일 18시까지 (UTC)
남남서8kt
시정 10km 이상
고도 2300ft 상공 구름 조금
고도 3700ft 상공 구름 조금, 적란운.
고도 5000ft 상공 구름 보통
26일 0000시부터 (UTC)
4kt
시정 10km 이상
고도 2300ft 상공 구름 많음
고도 3300ft 상공 구름 조금, 적란운.
일시적
26일 02시부터 26일 04시까지 (UTC)
12kt
시정: 5000m
고도 2000ft 상공 구름 많음
고도 3300ft 상공 구름 보통, 적란운.
뇌우, 비
26일 0400시부터 (UTC)
북북동4kt
시정: 8000m
고도 2000ft 상공 구름 보통
고도 4000ft 상공 구름 조금, 적란운.
고도 6000ft 상공 구름 많음
26일 0700시부터 (UTC)
시정 10km 이상
고도 1700ft 상공 구름 조금
고도 7000ft 상공 구름 많음

TAF: MSLP 251525Z 2518/2618 21008KT 9999 FEW023 FEW037CB SCT050 TX34/2518Z TN23/2610Z FM260000 35004KT 9999 BKN023 FEW033CB TEMPO 2602/2604 09012KT 5000 TSRA BKN020 SCT033CB FM260400 03004KT 8000 RA SCT020 FEW040CB BKN060 FM260700 9999 NSW FEW017 BKN070

4,000개 이상의 공항 관측 자료 및 예보 (METAR 및 TAF 보고).

지도상에서 검색 가능한 기상관측소가 노란 점과 빨간 점으로 표시되어 있습니다.

기상관측소 명을 보려면 표시 위로 마우스를 이동하세요.

날씨 관측과 예보를 보려면 클릭하세요.

지도 변경 : 확대하려면 엑스 표시가 있는 녹색 버튼, 축소하려면 빼기 표시가 있는 녹색 버튼, 다음 페이지의 지도를 보려면 녹색 화살표를 클릭하세요.


METAR-TAF: